• °C
  • Pobieranie danych...
wx

PRINT OUT SECTION, show »

METAR EPCE 230700Z 31013KT 9999 FEW037 06/M03
Q1017 RMK 060 054 1/1=

METAR EPDA 230700Z 29008KT 9999 BKN089 06/03
Q1019 RMK 060 079 6/6=

METAR EPDE 230700Z 28014KT 9999 FEW033 SCT090 07/M02 Q1020 RMK 065
054 3/2=

METAR EPIR 230700Z 26016KT CAVOK 06/01 Q1019 RMK 063 070 2/2=

METAR EPKS 230700Z 28011KT 9999 BKN013 06/06 Q1021 RMK 062 100 5/5=

METAR EPLK 230700Z 27012KT 230V300 9999 SCT013 06/06 Q1020 RMK 056
100 4/4=

METAR EPLY 230700Z 26010KT 9999 FEW014 SCT045 BKN100 06/02 Q1020 RMK
061 078 5/1=

METAR EPMB 230700Z AUTO 27013KT 250V310 9999 NCD 07/02 Q1016 RMK 074
067 ///=

METAR EPMI 230700Z 27012KT 9999 BKN011 05/02 Q1020 RMK 047 083 7/7=

METAR EPMM 230700Z 31012KT 9999 FEW020 BKN070 06/M01 Q1018 RMK 058
060 5/1=

METAR EPNA 230700Z 29012KT 9999 BKN020 05/02 Q1019 RMK 053 079 6/6=

METAR EPOK 230700Z 30015KT 9999 FEW037 07/M02
Q1016 RMK 071 053 2/2=

METAR EPPR 230700Z 26014KT 9999 FEW083 08/M02 Q1017 RMK 075 052 2/2=

METAR EPPW 230700Z 28012KT 9999 SCT012 06/05 Q1020 RMK 064 089 3/3=

METAR EPRA 230700Z NIL=

METAR EPSN 230700Z 28013KT 9999 BKN012 BKN017 06/02 Q1019 RMK 056
079 7/5=

METAR EPTM 230700Z 27006KT 9999 FEW024 SCT070 06/M00 Q1020 RMK 058
065 3/1=
 METAR EPDA
Lokalizacja:EPDA Darłowo
Czas:07:00 UTC
Średni kierunek wiatru:290 °
Średnia prędkość wiatru:8 węzłów
Widzialność:10 km i więcej
Pierwsza warstwa chmur:5/8 do 7/8, wysokość podstawy 8900 FT
Temperatura powietrza:6 °C
Temperatura punktu rosy:3 °C
Ciśnienie QNH:1019 hPa
Dokładna temperatura powietrza:6,0 °C
Dokładna wilgotność względna:79 %
Zachmurzenie przez wszystkie piętra chmur:6/8
Zachmurzenie przez chmury niskie:6/8



IMGW-PIB Sites